createdAt,value
2022-10-15T00:01:52.952Z,95927.50
2022-10-15T00:04:48.277Z,95906.34
2022-10-15T00:07:17.387Z,95873.22
2022-10-15T00:09:45.680Z,95900.00
2022-10-15T00:12:15.309Z,95817.28
2022-10-15T00:14:43.631Z,95869.34
2022-10-15T00:17:11.873Z,95877.50
2022-10-15T00:19:40.130Z,95844.38
2022-10-15T00:22:08.422Z,95914.16
2022-10-15T00:24:38.220Z,95914.34
2022-10-15T00:27:06.533Z,95899.47
2022-10-15T00:29:36.332Z,95853.94
2022-10-15T00:32:04.591Z,95883.66
2022-10-15T00:34:32.866Z,95902.97
2022-10-15T00:37:01.161Z,95854.34
2022-10-15T00:39:29.466Z,95899.72
2022-10-15T00:41:57.719Z,95842.59
2022-10-15T00:44:51.994Z,95884.88
2022-10-15T00:47:26.625Z,95865.94
2022-10-15T00:50:01.377Z,95827.88
2022-10-15T00:52:42.150Z,95905.59
2022-10-15T00:55:16.690Z,95877.91
2022-10-15T00:57:46.235Z,95871.00
2022-10-15T01:00:17.918Z,95829.53
2022-10-15T01:02:47.267Z,95833.22
2022-10-15T01:05:18.558Z,95813.91
2022-10-15T01:07:46.861Z,95878.09
2022-10-15T01:10:19.551Z,95882.81
2022-10-15T01:13:09.498Z,95828.22
2022-10-15T01:15:47.614Z,95853.13
2022-10-15T01:18:22.025Z,95858.41
2022-10-15T01:21:05.209Z,95840.13
2022-10-15T01:24:19.683Z,95863.69
2022-10-15T01:27:22.453Z,95859.84
2022-10-15T01:30:26.604Z,95834.84
2022-10-15T01:33:19.723Z,95824.88
2022-10-15T01:35:51.691Z,95766.69
2022-10-15T01:38:36.185Z,95847.63
2022-10-15T01:41:11.717Z,95807.59
2022-10-15T01:43:46.118Z,95782.78
2022-10-15T01:46:42.505Z,95791.34
2022-10-15T01:49:17.540Z,95837.28
2022-10-15T01:51:46.188Z,95829.56
2022-10-15T01:54:19.552Z,95858.63
2022-10-15T01:56:50.854Z,95839.91
2022-10-15T01:59:25.295Z,95833.22
2022-10-15T02:01:57.954Z,95779.53
2022-10-15T02:04:52.086Z,95745.41
2022-10-15T02:07:34.941Z,95833.22
2022-10-15T02:10:13.321Z,95849.53
2022-10-15T02:12:52.758Z,95821.84
2022-10-15T02:15:27.672Z,95783.00
2022-10-15T02:18:03.352Z,95797.03
2022-10-15T02:20:37.185Z,95824.72
2022-10-15T02:23:12.743Z,95839.78
2022-10-15T02:25:43.107Z,95796.03
2022-10-15T02:28:14.301Z,95793.38
2022-10-15T02:30:45.837Z,95782.19
2022-10-15T02:33:17.610Z,95749.06
2022-10-15T02:35:48.318Z,95800.91
2022-10-15T02:38:22.040Z,95778.34
2022-10-15T02:40:51.720Z,95779.78
2022-10-15T02:43:22.322Z,95794.59
2022-10-15T02:45:52.079Z,95786.66
2022-10-15T02:48:23.469Z,95798.69
2022-10-15T02:50:51.745Z,95803.97
2022-10-15T02:53:20.090Z,95829.59
2022-10-15T02:55:48.430Z,95804.78
2022-10-15T02:58:16.784Z,95807.25
2022-10-15T03:00:45.885Z,95794.84
2022-10-15T03:03:14.648Z,95770.22
2022-10-15T03:05:45.793Z,95756.19
2022-10-15T03:08:14.677Z,95804.00
2022-10-15T03:10:42.949Z,95772.44
2022-10-15T03:13:11.162Z,95787.31
2022-10-15T03:15:46.871Z,95795.44
2022-10-15T03:18:16.669Z,95793.22
2022-10-15T03:20:47.359Z,95756.00
2022-10-15T03:23:16.075Z,95776.53
2022-10-15T03:25:46.235Z,95772.25
2022-10-15T03:28:23.253Z,95814.38
2022-10-15T03:30:51.958Z,95727.50
2022-10-15T03:33:23.084Z,95818.66
2022-10-15T03:35:55.778Z,95803.56
2022-10-15T03:38:24.500Z,96056.88
2022-10-15T03:40:54.182Z,95742.97
2022-10-15T03:43:42.770Z,95818.03
2022-10-15T03:46:11.702Z,95808.66
2022-10-15T03:48:44.076Z,95812.94
2022-10-15T03:51:18.493Z,95805.63
2022-10-15T03:53:54.384Z,95826.78
2022-10-15T03:56:22.752Z,95825.56
2022-10-15T03:58:51.337Z,95819.47
2022-10-15T04:01:21.436Z,95870.72
2022-10-15T04:04:01.582Z,95816.59
2022-10-15T04:06:34.410Z,95843.03
2022-10-15T04:09:07.212Z,95791.94
2022-10-15T04:11:35.558Z,95836.53
2022-10-15T04:14:06.227Z,95869.09
2022-10-15T04:16:35.035Z,95899.31
2022-10-15T04:19:12.197Z,95819.50
2022-10-15T04:21:43.653Z,95814.63
2022-10-15T04:24:25.692Z,95858.16
2022-10-15T04:26:54.214Z,95811.78
2022-10-15T04:29:22.579Z,95830.09
2022-10-15T04:31:51.554Z,95843.53
2022-10-15T04:34:20.625Z,95810.75
2022-10-15T04:36:51.762Z,95829.66
2022-10-15T04:39:22.683Z,95844.31
2022-10-15T04:41:50.898Z,95788.56
2022-10-15T04:44:24.765Z,95874.44
2022-10-15T04:46:57.083Z,95836.16
2022-10-15T04:49:57.650Z,95793.66
2022-10-15T04:52:50.129Z,95870.00
2022-10-15T04:55:19.557Z,95837.81
2022-10-15T04:57:48.660Z,95836.19
2022-10-15T05:00:23.453Z,95810.97
2022-10-15T05:03:23.766Z,95871.81
2022-10-15T05:06:04.370Z,95850.03
2022-10-15T05:08:36.606Z,95825.59
2022-10-15T05:11:16.695Z,95783.88
2022-10-15T05:13:45.469Z,95832.47
2022-10-15T05:16:16.720Z,95871.19
2022-10-15T05:18:47.371Z,95870.78
2022-10-15T05:21:17.081Z,95845.75
2022-10-15T05:23:50.175Z,95835.38
2022-10-15T05:26:40.605Z,95860.59
2022-10-15T05:29:10.972Z,95872.00
2022-10-15T05:31:40.326Z,95859.41
2022-10-15T05:34:15.771Z,95878.94
2022-10-15T05:36:58.710Z,95855.94
2022-10-15T05:39:28.331Z,95874.47
2022-10-15T05:41:56.870Z,95870.38
2022-10-15T05:44:35.964Z,95869.38
2022-10-15T05:47:04.212Z,95877.31
2022-10-15T05:49:34.206Z,95913.34
2022-10-15T05:52:09.157Z,95910.69
2022-10-15T05:54:57.561Z,95926.97
2022-10-15T05:57:25.781Z,95898.06
2022-10-15T05:59:53.955Z,95874.44
2022-10-15T06:02:22.852Z,95889.91
2022-10-15T06:04:57.324Z,95925.75
2022-10-15T06:07:25.871Z,95908.22
2022-10-15T06:09:54.401Z,95926.16
2022-10-15T06:12:26.974Z,95906.81
2022-10-15T06:14:55.232Z,95919.66
2022-10-15T06:17:23.591Z,95872.84
2022-10-15T06:19:52.431Z,95902.31
2022-10-15T06:22:20.633Z,95940.03
2022-10-15T06:24:48.882Z,95920.88
2022-10-15T06:27:17.076Z,95911.50
2022-10-15T06:29:46.645Z,95951.41
2022-10-15T06:32:14.867Z,95920.03
2022-10-15T06:34:44.742Z,95951.00
2022-10-15T06:37:12.931Z,95878.94
2022-10-15T06:39:41.139Z,95935.16
2022-10-15T06:42:09.319Z,95950.41
2022-10-15T06:44:40.279Z,95953.25
2022-10-15T06:47:10.651Z,95947.34
2022-10-15T06:49:38.868Z,95977.91
2022-10-15T06:52:07.104Z,95954.47
2022-10-15T06:54:35.721Z,95958.97
2022-10-15T06:57:05.629Z,95969.97
2022-10-15T06:59:35.785Z,95964.47
2022-10-15T07:02:05.306Z,95964.44
2022-10-15T07:04:34.901Z,96002.34
2022-10-15T07:07:03.415Z,95970.56
2022-10-15T07:09:32.015Z,95952.63
2022-10-15T07:12:00.230Z,96013.91
2022-10-15T07:14:29.958Z,96041.41
2022-10-15T07:16:58.793Z,95997.84
2022-10-15T07:19:28.394Z,95980.13
2022-10-15T07:21:58.114Z,96065.59
2022-10-15T07:24:26.373Z,96002.50
2022-10-15T07:26:54.593Z,96050.97
2022-10-15T07:29:22.847Z,96006.78
2022-10-15T07:31:51.037Z,96041.41
2022-10-15T07:34:20.017Z,96040.59
2022-10-15T07:36:48.263Z,96014.72
2022-10-15T07:39:19.568Z,96031.44
2022-10-15T07:41:47.817Z,96026.34
2022-10-15T07:44:16.068Z,96038.75
2022-10-15T07:46:44.295Z,96003.97
2022-10-15T07:49:12.511Z,96047.09
2022-10-15T07:51:40.721Z,96046.06
2022-10-15T07:54:08.952Z,96140.19
2022-10-15T07:56:38.536Z,96023.06
2022-10-15T07:59:06.793Z,96073.41
2022-10-15T08:01:35.004Z,95995.81
2022-10-15T08:04:07.749Z,96058.97
2022-10-15T08:06:41.115Z,96050.44
2022-10-15T08:09:09.423Z,96060.66
2022-10-15T08:11:39.055Z,96031.28
2022-10-15T08:14:11.328Z,96091.00
2022-10-15T08:16:39.571Z,96078.13
2022-10-15T08:19:07.821Z,96056.59
2022-10-15T08:21:36.112Z,96097.34
2022-10-15T08:24:04.453Z,96077.59
2022-10-15T08:26:35.023Z,96002.97
2022-10-15T08:29:05.046Z,96054.06
2022-10-15T08:31:33.414Z,96110.78
2022-10-15T08:34:01.765Z,96100.22
2022-10-15T08:36:30.024Z,96064.72
2022-10-15T08:38:58.994Z,96104.63
2022-10-15T08:41:33.888Z,96093.28
2022-10-15T08:44:04.173Z,96070.66
2022-10-15T08:46:38.760Z,96066.31
2022-10-15T08:49:08.563Z,96133.22
2022-10-15T08:51:43.538Z,96164.19
2022-10-15T08:54:18.107Z,96138.72
2022-10-15T08:56:50.454Z,96140.75
2022-10-15T08:59:31.910Z,96116.09
2022-10-15T09:02:05.198Z,96116.91
2022-10-15T09:04:47.221Z,96122.63
2022-10-15T09:07:27.668Z,96131.16
2022-10-15T09:10:06.694Z,96040.69
2022-10-15T09:12:49.823Z,96131.78
2022-10-15T09:15:25.493Z,96100.81
2022-10-15T09:17:57.072Z,96129.97
2022-10-15T09:20:34.146Z,96158.91
2022-10-15T09:23:02.644Z,96065.69
2022-10-15T09:25:38.810Z,96034.97
2022-10-15T09:28:12.069Z,96131.63
2022-10-15T09:30:49.265Z,96164.28
2022-10-15T09:33:34.083Z,96129.84
2022-10-15T09:36:18.454Z,96129.59
2022-10-15T09:39:03.268Z,96162.69
2022-10-15T09:41:44.389Z,96128.84
2022-10-15T09:44:17.411Z,96222.03
2022-10-15T09:46:52.145Z,96101.47
2022-10-15T09:49:25.156Z,96105.97
2022-10-15T09:52:05.914Z,96162.03
2022-10-15T09:54:43.954Z,96134.53
2022-10-15T09:57:14.496Z,96133.31
2022-10-15T09:59:55.184Z,96144.31
2022-10-15T10:02:27.050Z,96165.13
2022-10-15T10:04:56.525Z,96176.13
2022-10-15T10:07:33.327Z,96084.75
2022-10-15T10:10:05.583Z,96148.81
2022-10-15T10:12:36.679Z,96183.69
2022-10-15T10:15:09.889Z,96161.03
2022-10-15T10:17:39.524Z,96158.19
2022-10-15T10:20:19.577Z,96141.66
2022-10-15T10:22:52.559Z,96164.06
2022-10-15T10:25:36.693Z,96137.78
2022-10-15T10:28:18.508Z,96148.78
2022-10-15T10:31:03.600Z,96016.22
2022-10-15T10:33:37.656Z,96174.50
2022-10-15T10:38:41.903Z,96150.63
2022-10-15T10:41:12.451Z,96173.69
2022-10-15T10:43:42.279Z,96117.41
2022-10-15T10:46:20.484Z,96132.06
2022-10-15T10:48:52.750Z,96165.13
2022-10-15T10:51:24.079Z,96159.59
2022-10-15T10:54:02.704Z,96175.94
2022-10-15T10:56:38.331Z,96215.72
2022-10-15T10:59:16.851Z,96186.75
2022-10-15T11:01:46.160Z,96147.16
2022-10-15T11:04:26.548Z,96165.13
2022-10-15T11:07:03.014Z,96167.16
2022-10-15T11:09:45.321Z,96213.88
2022-10-15T11:12:38.597Z,96133.31
2022-10-15T11:15:28.595Z,96172.03
2022-10-15T11:18:14.432Z,96211.22
2022-10-15T11:20:59.707Z,96184.72
2022-10-15T11:23:55.914Z,96182.63
2022-10-15T11:26:52.014Z,96216.09
2022-10-15T11:29:52.392Z,96205.09
2022-10-15T11:32:48.277Z,96160.03
2022-10-15T11:35:57.983Z,96207.13
2022-10-15T11:38:35.334Z,96204.28
2022-10-15T11:41:22.174Z,96182.66
2022-10-15T11:44:12.097Z,96166.75
2022-10-15T11:46:47.564Z,96271.03
2022-10-15T11:49:30.634Z,96195.53
2022-10-15T11:52:17.262Z,96178.16
2022-10-15T11:54:54.204Z,96156.53
2022-10-15T11:57:23.766Z,96181.22
2022-10-15T11:59:58.141Z,96191.41
2022-10-15T12:02:34.272Z,96166.72
2022-10-15T12:05:08.995Z,96131.59
2022-10-15T12:07:42.690Z,96148.69
2022-10-15T12:10:40.702Z,96143.94
2022-10-15T12:13:15.152Z,96185.72
2022-10-15T12:15:52.491Z,96162.56
2022-10-15T12:18:29.204Z,96159.25
2022-10-15T12:20:58.657Z,96165.78
2022-10-15T12:23:40.878Z,96108.66
2022-10-15T12:26:32.015Z,96000.09
2022-10-15T12:29:05.199Z,96124.16
2022-10-15T12:31:51.573Z,96148.81
2022-10-15T12:34:41.533Z,96131.75
2022-10-15T12:37:18.731Z,96079.91
2022-10-15T12:39:52.506Z,96159.91
2022-10-15T12:42:27.849Z,96157.91
2022-10-15T12:44:57.853Z,96143.19
2022-10-15T12:47:50.909Z,96131.72
2022-10-15T12:50:21.833Z,96144.81
2022-10-15T12:53:01.923Z,96140.28
2022-10-15T12:55:33.998Z,96136.94
2022-10-15T12:58:07.609Z,96098.34
2022-10-15T13:00:40.405Z,96152.22
2022-10-15T13:03:28.903Z,96146.19
2022-10-15T13:05:57.214Z,96097.47
2022-10-15T13:08:38.719Z,96124.88
2022-10-15T13:11:20.279Z,96013.72
2022-10-15T13:13:52.291Z,96088.78
2022-10-15T13:16:21.917Z,96230.34
2022-10-15T13:18:53.454Z,96116.91
2022-10-15T13:21:21.721Z,96084.09
2022-10-15T13:23:51.978Z,96116.28
2022-10-15T13:26:25.505Z,96099.09
2022-10-15T13:28:58.941Z,96069.63
2022-10-15T13:31:31.093Z,96107.53
2022-10-15T13:34:07.559Z,96108.56
2022-10-15T13:36:37.009Z,96063.50
2022-10-15T13:39:08.422Z,96127.00
2022-10-15T13:41:40.284Z,96123.88
2022-10-15T13:44:23.274Z,96087.50
2022-10-15T13:46:52.309Z,96079.72
2022-10-15T13:49:22.248Z,96086.53
2022-10-15T13:51:54.207Z,96098.03
2022-10-15T13:54:26.088Z,96116.09
2022-10-15T13:56:57.887Z,96135.13
2022-10-15T13:59:31.250Z,96095.97
2022-10-15T14:02:02.151Z,96128.22
2022-10-15T14:04:32.632Z,96110.50
2022-10-15T14:07:04.262Z,96116.84
2022-10-15T14:09:35.697Z,96097.41
2022-10-15T14:12:07.504Z,96080.16
2022-10-15T14:14:39.829Z,96177.59
2022-10-15T14:17:10.434Z,96091.56
2022-10-15T14:19:40.227Z,96088.75
2022-10-15T14:22:08.731Z,96120.78
2022-10-15T14:24:39.020Z,96086.19
2022-10-15T14:27:09.633Z,96136.78
2022-10-15T14:29:42.899Z,96123.91
2022-10-15T14:32:24.379Z,96115.31
2022-10-15T14:34:54.671Z,96128.84
2022-10-15T14:37:41.289Z,96114.16
2022-10-15T14:40:18.603Z,96134.06
2022-10-15T14:42:49.538Z,96118.75
2022-10-15T14:45:26.655Z,96061.44
2022-10-15T14:47:58.373Z,95771.19
2022-10-15T14:50:33.072Z,96134.38
2022-10-15T14:53:08.575Z,96161.31
2022-10-15T14:55:40.660Z,96111.06
2022-10-15T14:58:11.151Z,96094.38
2022-10-15T15:00:44.571Z,96146.03
2022-10-15T15:03:19.286Z,96170.13
2022-10-15T15:05:49.939Z,96165.03
2022-10-15T15:08:18.226Z,96185.25
2022-10-15T15:13:22.869Z,96147.13
2022-10-15T15:15:52.774Z,96134.50
2022-10-15T15:18:21.908Z,96135.50
2022-10-15T15:20:52.232Z,96163.47
2022-10-15T15:23:24.053Z,96105.50
2022-10-15T15:25:52.911Z,96096.09
2022-10-15T15:28:24.860Z,96169.81
2022-10-15T15:30:59.654Z,96167.16
2022-10-15T15:33:29.186Z,96200.63
2022-10-15T15:36:03.551Z,96176.94
2022-10-15T15:38:32.491Z,96152.25
2022-10-15T15:41:04.448Z,96161.41
2022-10-15T15:43:33.079Z,96163.88
2022-10-15T15:46:02.698Z,96158.56
2022-10-15T15:48:31.367Z,96137.97
2022-10-15T15:51:04.441Z,96212.25
2022-10-15T15:53:33.000Z,96144.50
2022-10-15T15:56:03.031Z,96112.84
2022-10-15T15:58:34.215Z,96159.00
2022-10-15T16:01:03.985Z,96153.28
2022-10-15T16:03:32.266Z,96180.63
2022-10-15T16:06:00.878Z,96129.59
2022-10-15T16:08:29.267Z,96153.28
2022-10-15T16:11:01.692Z,96153.09
2022-10-15T16:13:30.237Z,96211.63
2022-10-15T16:15:58.784Z,96217.56
2022-10-15T16:18:28.429Z,96218.19
2022-10-15T16:20:56.751Z,96169.00
2022-10-15T16:23:25.149Z,96136.56
2022-10-15T16:25:54.940Z,96204.69
2022-10-15T16:28:23.191Z,96184.28
2022-10-15T16:30:51.471Z,96214.44
2022-10-15T16:33:19.692Z,96198.53
2022-10-15T16:35:54.399Z,96185.53
2022-10-15T16:38:22.632Z,96182.06
2022-10-15T16:40:50.840Z,96183.88
2022-10-15T16:43:19.074Z,96132.50
2022-10-15T16:45:56.715Z,96178.97
2022-10-15T16:48:26.128Z,96126.16
2022-10-15T16:51:02.871Z,96219.78
2022-10-15T16:53:31.788Z,96211.22
2022-10-15T16:56:04.247Z,96193.69
2022-10-15T16:58:33.264Z,96241.31
2022-10-15T17:01:01.912Z,96231.63
2022-10-15T17:03:30.855Z,96162.88
2022-10-15T17:06:02.392Z,96236.50
2022-10-15T17:08:37.196Z,96223.47
2022-10-15T17:11:11.061Z,96240.19
2022-10-15T17:13:39.670Z,96189.19
2022-10-15T17:16:16.035Z,96244.28
2022-10-15T17:18:45.321Z,96239.75
2022-10-15T17:21:18.707Z,96207.75
2022-10-15T17:23:47.729Z,96211.22
2022-10-15T17:26:18.735Z,96254.47
2022-10-15T17:28:48.534Z,96242.81
2022-10-15T17:31:19.740Z,96240.94
2022-10-15T17:33:49.649Z,96271.28
2022-10-15T17:36:21.938Z,96246.22
2022-10-15T17:38:50.410Z,96251.53
2022-10-15T17:41:21.958Z,96255.81
2022-10-15T17:43:51.362Z,96226.28
2022-10-15T17:46:21.974Z,96299.00
2022-10-15T17:48:51.082Z,96225.38
2022-10-15T17:51:23.541Z,96233.72
2022-10-15T17:53:57.612Z,96202.31
2022-10-15T17:56:28.473Z,96276.75
2022-10-15T17:58:58.528Z,96272.25
2022-10-15T18:01:58.359Z,96265.13
2022-10-15T18:04:29.451Z,96298.97
2022-10-15T18:06:59.040Z,96280.81
2022-10-15T18:09:28.609Z,96289.59
2022-10-15T18:12:01.385Z,96281.69
2022-10-15T18:14:32.492Z,96259.44
2022-10-15T18:17:00.748Z,96203.97
2022-10-15T18:19:29.179Z,96243.34
2022-10-15T18:21:59.171Z,96206.84
2022-10-15T18:24:27.446Z,96234.28
2022-10-15T18:26:55.730Z,96269.78
2022-10-15T18:29:25.874Z,96286.31
2022-10-15T18:31:58.023Z,96229.25
2022-10-15T18:34:28.562Z,96277.09
2022-10-15T18:36:58.319Z,96242.84
2022-10-15T18:39:26.926Z,96258.16
2022-10-15T18:41:55.086Z,96293.59
2022-10-15T18:44:23.737Z,96290.16
2022-10-15T18:46:52.484Z,96298.31
2022-10-15T18:49:22.522Z,96263.06
2022-10-15T18:51:52.834Z,96196.38
2022-10-15T18:54:23.464Z,96268.34
2022-10-15T18:56:53.532Z,96263.44
2022-10-15T18:59:22.350Z,96207.50
2022-10-15T19:01:53.505Z,96298.72
2022-10-15T19:04:23.954Z,96272.84
2022-10-15T19:06:54.327Z,96283.84
2022-10-15T19:09:26.569Z,96287.34
2022-10-15T19:11:56.651Z,96288.97
2022-10-15T19:14:28.026Z,96240.66
2022-10-15T19:16:57.198Z,96267.16
2022-10-15T19:19:26.749Z,96310.56
2022-10-15T19:21:58.910Z,96308.72
2022-10-15T19:24:28.976Z,96318.34
2022-10-15T19:26:57.293Z,96310.16
2022-10-15T19:29:25.737Z,96314.63
2022-10-15T19:31:55.790Z,96343.13
2022-10-15T19:34:24.044Z,96273.25
2022-10-15T19:36:52.435Z,96298.34
2022-10-15T19:39:25.249Z,96358.69
2022-10-15T19:41:54.995Z,96311.97
2022-10-15T19:44:25.717Z,96309.78
2022-10-15T19:46:55.100Z,96315.47
2022-10-15T19:49:23.627Z,96231.47
2022-10-15T19:51:52.693Z,96246.34
2022-10-15T19:54:21.114Z,96358.31
2022-10-15T19:56:49.504Z,96319.94
2022-10-15T19:59:19.249Z,96336.44
2022-10-15T20:01:47.534Z,96283.69
2022-10-15T20:04:15.793Z,96359.78
2022-10-15T20:06:44.822Z,96369.53
2022-10-15T20:09:13.542Z,96341.22
2022-10-15T20:11:42.304Z,96306.50
2022-10-15T20:14:10.687Z,96299.19
2022-10-15T20:16:40.298Z,96326.06
2022-10-15T20:19:08.537Z,96308.53
2022-10-15T20:21:36.772Z,96307.34
2022-10-15T20:24:05.392Z,96366.06
2022-10-15T20:26:33.916Z,96308.53
2022-10-15T20:29:02.375Z,96359.72
2022-10-15T20:31:33.007Z,96366.84
2022-10-15T20:34:04.338Z,96341.97
2022-10-15T20:36:32.815Z,96349.56
2022-10-15T20:39:01.589Z,96247.19
2022-10-15T20:41:30.299Z,96357.47
2022-10-15T20:43:59.352Z,96338.88
2022-10-15T20:46:31.514Z,96374.38
2022-10-15T20:49:08.787Z,96328.84
2022-10-15T20:51:39.612Z,96349.88
2022-10-15T20:54:08.662Z,96380.53
2022-10-15T20:56:36.975Z,96384.94
2022-10-15T20:59:05.897Z,96339.78
2022-10-15T21:01:35.211Z,96381.09
2022-10-15T21:04:06.123Z,96367.63
2022-10-15T21:06:34.972Z,96334.66
2022-10-15T21:09:03.478Z,96411.06
2022-10-15T21:11:31.763Z,96362.81
2022-10-15T21:16:53.925Z,96373.31
2022-10-15T21:19:23.762Z,96379.41
2022-10-15T21:21:51.987Z,96373.69
2022-10-15T21:24:20.657Z,96391.38
2022-10-15T21:26:48.933Z,96422.16
2022-10-15T21:29:17.537Z,96418.06
2022-10-15T21:31:47.047Z,96411.16
2022-10-15T21:34:15.931Z,96420.56
2022-10-15T21:36:45.519Z,96413.22
2022-10-15T21:39:14.132Z,96379.38
2022-10-15T21:41:42.242Z,96391.94
2022-10-15T21:44:10.482Z,96378.69
2022-10-15T21:46:41.552Z,96351.34
2022-10-15T21:49:09.867Z,96402.75
2022-10-15T21:51:38.942Z,96407.69
2022-10-15T21:54:09.280Z,96433.53
2022-10-15T21:56:38.488Z,96403.41
2022-10-15T21:59:06.862Z,96423.94
2022-10-15T22:02:01.616Z,96367.50
2022-10-15T22:04:30.351Z,96418.78
2022-10-15T22:06:59.029Z,96434.81
2022-10-15T22:09:28.777Z,96442.16
2022-10-15T22:11:57.000Z,96428.88
2022-10-15T22:14:25.276Z,96405.25
2022-10-15T22:16:53.534Z,96429.66
2022-10-15T22:19:21.800Z,96394.44
2022-10-15T22:21:50.176Z,96422.59
2022-10-15T22:24:21.674Z,96398.13
2022-10-15T22:26:53.236Z,96388.69
2022-10-15T22:29:25.276Z,96413.63
2022-10-15T22:31:55.019Z,96443.59
2022-10-15T22:34:24.746Z,96418.31
2022-10-15T22:36:53.503Z,96408.28
2022-10-15T22:39:21.792Z,96456.06
2022-10-15T22:41:51.334Z,96410.78
2022-10-15T22:44:21.625Z,96413.44
2022-10-15T22:46:50.136Z,96427.94
2022-10-15T22:49:20.634Z,96462.53
2022-10-15T22:51:50.001Z,96429.88
2022-10-15T22:54:19.447Z,96395.69
2022-10-15T22:56:47.697Z,96452.31
2022-10-15T22:59:17.897Z,96437.94
2022-10-15T23:01:46.339Z,96392.34
2022-10-15T23:04:16.024Z,96349.50
2022-10-15T23:06:44.469Z,96442.72
2022-10-15T23:09:17.734Z,96434.38
2022-10-15T23:11:46.872Z,96492.19
2022-10-15T23:14:18.491Z,96442.56
2022-10-15T23:16:49.111Z,96386.53
2022-10-15T23:19:20.056Z,96347.69
2022-10-15T23:21:50.825Z,96437.09
2022-10-15T23:24:22.387Z,96427.31
2022-10-15T23:26:51.153Z,96463.22
2022-10-15T23:29:23.245Z,96403.91
2022-10-15T23:31:52.690Z,96421.78
2022-10-15T23:34:23.152Z,96439.88
2022-10-15T23:36:52.510Z,96414.97
2022-10-15T23:39:23.488Z,96473.06
2022-10-15T23:41:52.357Z,96436.81
2022-10-15T23:44:25.262Z,96419.84
2022-10-15T23:46:53.884Z,96435.91
2022-10-15T23:49:22.133Z,96460.31
2022-10-15T23:51:50.376Z,96470.34
2022-10-15T23:54:20.194Z,96410.78
2022-10-15T23:56:49.377Z,96430.22
2022-10-15T23:59:18.295Z,96472.81
